ITY187 LIEE-LIMJ
Flight info
| Callsign | ITY187 |
|---|---|
| Flight time | 1h 4m |
| Altitude | 18000 |
| Route | KOVAS Q125 DEXUL/N0451F340 DCT SUKUN DCT MAMAR DCT ELB DCT BETEN/N0377F180 M729 IDONA |
| Aircraft | A320/M-SDE3FGHIRWY/LB1 |
Departure
| Time | 2026-04-24 13:15 |
|---|---|
| Airport | Cagliari Elmas Airport (LIEE) |
Arrival
| Time | 2026-04-24 14:20 |
|---|---|
| Airport | Genoa Cristoforo Colombo Airport (LIMJ) |
| Time | Latitude | Longitude | Altitude | Speed | Heading |
|---|---|---|---|---|---|
| 2026-04-24 12:57 | 39.25239 | 9.05944 | 17 ft | 0 kts | 322° |
| 2026-04-24 13:07 | 39.25233 | 9.05950 | 15 ft | 2 kts | 317° |
| 2026-04-24 13:07 | 39.25226 | 9.05959 | 15 ft | 2 kts | 316° |
| 2026-04-24 13:08 | 39.25214 | 9.05975 | 16 ft | 2 kts | 306° |
| 2026-04-24 13:08 | 39.25205 | 9.05993 | 17 ft | 2 kts | 288° |
| 2026-04-24 13:08 | 39.25203 | 9.06013 | 18 ft | 2 kts | 256° |
| 2026-04-24 13:09 | 39.25212 | 9.06039 | 18 ft | 0 kts | 233° |
| 2026-04-24 13:11 | 39.25201 | 9.06021 | 18 ft | 8 kts | 233° |
| 2026-04-24 13:11 | 39.25157 | 9.05948 | 15 ft | 12 kts | 232° |
| 2026-04-24 13:11 | 39.25180 | 9.05849 | 15 ft | 14 kts | 317° |
| 2026-04-24 13:11 | 39.25266 | 9.05750 | 15 ft | 20 kts | 319° |
| 2026-04-24 13:12 | 39.25377 | 9.05610 | 15 ft | 24 kts | 303° |
| 2026-04-24 13:12 | 39.25427 | 9.05403 | 15 ft | 25 kts | 297° |
| 2026-04-24 13:12 | 39.25549 | 9.05239 | 15 ft | 27 kts | 319° |
| 2026-04-24 13:12 | 39.25691 | 9.05076 | 15 ft | 28 kts | 317° |
| 2026-04-24 13:13 | 39.25840 | 9.04901 | 15 ft | 30 kts | 318° |
| 2026-04-24 13:13 | 39.25998 | 9.04718 | 15 ft | 31 kts | 318° |
| 2026-04-24 13:13 | 39.26114 | 9.04563 | 15 ft | 23 kts | 292° |
| 2026-04-24 13:13 | 39.26115 | 9.04429 | 15 ft | 15 kts | 244° |
| 2026-04-24 13:14 | 39.26024 | 9.04417 | 16 ft | 8 kts | 140° |
| 2026-04-24 13:14 | 39.26001 | 9.04442 | 14 ft | 4 kts | 140° |
| 2026-04-24 13:14 | 39.25985 | 9.04458 | 14 ft | 0 kts | 140° |
| 2026-04-24 13:14 | 39.25977 | 9.04467 | 14 ft | 14 kts | 140° |
| 2026-04-24 13:15 | 39.25697 | 9.04791 | 17 ft | 90 kts | 138° |
| 2026-04-24 13:15 | 39.25072 | 9.05513 | 18 ft | 148 kts | 139° |
| 2026-04-24 13:15 | 39.24274 | 9.06415 | 565 ft | 151 kts | 141° |
| 2026-04-24 13:15 | 39.23484 | 9.07320 | 1251 ft | 154 kts | 139° |
| 2026-04-24 13:16 | 39.22630 | 9.08317 | 1651 ft | 176 kts | 138° |
| 2026-04-24 13:16 | 39.21672 | 9.09435 | 2063 ft | 196 kts | 137° |
| 2026-04-24 13:16 | 39.20607 | 9.10682 | 2464 ft | 217 kts | 137° |
| 2026-04-24 13:16 | 39.19465 | 9.11988 | 3298 ft | 220 kts | 141° |
| 2026-04-24 13:17 | 39.18022 | 9.12677 | 4075 ft | 231 kts | 180° |
| 2026-04-24 13:17 | 39.16504 | 9.12020 | 4832 ft | 242 kts | 214° |
| 2026-04-24 13:17 | 39.15242 | 9.10565 | 5673 ft | 246 kts | 227° |
| 2026-04-24 13:17 | 39.14133 | 9.08877 | 6537 ft | 247 kts | 233° |
| 2026-04-24 13:18 | 39.13507 | 9.06833 | 7225 ft | 251 kts | 272° |
| 2026-04-24 13:18 | 39.13848 | 9.04637 | 7838 ft | 259 kts | 296° |
| 2026-04-24 13:18 | 39.14955 | 9.02739 | 8228 ft | 273 kts | 322° |
| 2026-04-24 13:18 | 39.16423 | 9.01129 | 9014 ft | 280 kts | 320° |
| 2026-04-24 13:19 | 39.17894 | 8.99452 | 9887 ft | 284 kts | 320° |
| 2026-04-24 13:19 | 39.19367 | 8.97740 | 10681 ft | 287 kts | 320° |
| 2026-04-24 13:19 | 39.20860 | 8.95996 | 11470 ft | 291 kts | 319° |
| 2026-04-24 13:19 | 39.22444 | 8.94380 | 12292 ft | 291 kts | 331° |
| 2026-04-24 13:20 | 39.24299 | 8.93293 | 12961 ft | 299 kts | 344° |
| 2026-04-24 13:20 | 39.26416 | 8.92854 | 13153 ft | 320 kts | 358° |
| 2026-04-24 13:20 | 39.28723 | 8.92711 | 13349 ft | 342 kts | 358° |
| 2026-04-24 13:20 | 39.31140 | 8.92561 | 13855 ft | 352 kts | 358° |
| 2026-04-24 13:21 | 39.33603 | 8.92398 | 14494 ft | 356 kts | 357° |
| 2026-04-24 13:21 | 39.36090 | 8.92224 | 15137 ft | 360 kts | 357° |
| 2026-04-24 13:21 | 39.38610 | 8.92039 | 15791 ft | 364 kts | 356° |
| 2026-04-24 13:21 | 39.41152 | 8.92000 | 16425 ft | 368 kts | 4° |
| 2026-04-24 13:22 | 39.43677 | 8.92590 | 17058 ft | 372 kts | 15° |
| 2026-04-24 13:22 | 39.46087 | 8.93856 | 17666 ft | 377 kts | 27° |
| 2026-04-24 13:22 | 39.48394 | 8.95514 | 18056 ft | 381 kts | 28° |
| 2026-04-24 13:22 | 39.50732 | 8.97192 | 18150 ft | 391 kts | 28° |
| 2026-04-24 13:23 | 39.53146 | 8.98916 | 18149 ft | 399 kts | 28° |
| 2026-04-24 13:23 | 39.55588 | 9.00654 | 18149 ft | 401 kts | 27° |
| 2026-04-24 13:23 | 39.58040 | 9.02399 | 18148 ft | 402 kts | 27° |
| 2026-04-24 13:23 | 39.60494 | 9.04145 | 18146 ft | 402 kts | 27° |
| 2026-04-24 13:24 | 39.62912 | 9.05864 | 18146 ft | 402 kts | 27° |
| 2026-04-24 13:24 | 39.65503 | 9.07317 | 18145 ft | 400 kts | 17° |
| 2026-04-24 13:24 | 39.68154 | 9.08258 | 18154 ft | 400 kts | 13° |
| 2026-04-24 13:24 | 39.70851 | 9.09160 | 18149 ft | 400 kts | 14° |
| 2026-04-24 13:25 | 39.73537 | 9.10061 | 18146 ft | 399 kts | 14° |
| 2026-04-24 13:25 | 39.76268 | 9.10979 | 18146 ft | 414 kts | 14° |
| 2026-04-24 13:25 | 39.79105 | 9.11937 | 18142 ft | 426 kts | 14° |
| 2026-04-24 13:25 | 39.81991 | 9.12916 | 18144 ft | 430 kts | 14° |
| 2026-04-24 13:26 | 39.84871 | 9.13993 | 18138 ft | 431 kts | 19° |
| 2026-04-24 13:26 | 39.87580 | 9.15665 | 18144 ft | 433 kts | 30° |
| 2026-04-24 13:26 | 39.90119 | 9.17795 | 18139 ft | 433 kts | 32° |
| 2026-04-24 13:26 | 39.92639 | 9.19942 | 18142 ft | 432 kts | 32° |
| 2026-04-24 13:27 | 39.95163 | 9.22093 | 18144 ft | 433 kts | 32° |
| 2026-04-24 13:27 | 39.97681 | 9.24237 | 18147 ft | 433 kts | 32° |
| 2026-04-24 13:27 | 40.00203 | 9.26385 | 18147 ft | 433 kts | 32° |
| 2026-04-24 13:27 | 40.02722 | 9.28538 | 18145 ft | 433 kts | 32° |
| 2026-04-24 13:28 | 40.05246 | 9.30699 | 18146 ft | 433 kts | 32° |
| 2026-04-24 13:28 | 40.07771 | 9.32858 | 18151 ft | 434 kts | 32° |
| 2026-04-24 13:28 | 40.10298 | 9.35015 | 18153 ft | 434 kts | 32° |
| 2026-04-24 13:28 | 40.12821 | 9.37177 | 18158 ft | 433 kts | 32° |
| 2026-04-24 13:29 | 40.15315 | 9.39315 | 18168 ft | 433 kts | 32° |
| 2026-04-24 13:29 | 40.17837 | 9.41477 | 18169 ft | 433 kts | 32° |
| 2026-04-24 13:29 | 40.20352 | 9.43639 | 18168 ft | 433 kts | 32° |
| 2026-04-24 13:29 | 40.22868 | 9.45804 | 18168 ft | 433 kts | 32° |
| 2026-04-24 13:30 | 40.25382 | 9.47968 | 18169 ft | 433 kts | 33° |
| 2026-04-24 13:30 | 40.27898 | 9.50135 | 18166 ft | 432 kts | 33° |
| 2026-04-24 13:30 | 40.30407 | 9.52299 | 18166 ft | 432 kts | 33° |
| 2026-04-24 13:30 | 40.32925 | 9.54471 | 18165 ft | 432 kts | 33° |
| 2026-04-24 13:31 | 40.35434 | 9.56632 | 18166 ft | 432 kts | 33° |
| 2026-04-24 13:31 | 40.37950 | 9.58802 | 18164 ft | 432 kts | 33° |
| 2026-04-24 13:31 | 40.40459 | 9.60972 | 18163 ft | 432 kts | 33° |
| 2026-04-24 13:31 | 40.42969 | 9.63145 | 18159 ft | 432 kts | 33° |
| 2026-04-24 13:32 | 40.45475 | 9.65320 | 18158 ft | 432 kts | 33° |
| 2026-04-24 13:32 | 40.47983 | 9.67502 | 18158 ft | 432 kts | 33° |
| 2026-04-24 13:32 | 40.50486 | 9.69681 | 18165 ft | 432 kts | 33° |
| 2026-04-24 13:32 | 40.52991 | 9.71859 | 18164 ft | 431 kts | 32° |
| 2026-04-24 13:33 | 40.55490 | 9.74031 | 18163 ft | 431 kts | 33° |
| 2026-04-24 13:33 | 40.57990 | 9.76204 | 18162 ft | 431 kts | 32° |
| 2026-04-24 13:33 | 40.60490 | 9.78376 | 18163 ft | 430 kts | 33° |
| 2026-04-24 13:33 | 40.62988 | 9.80548 | 18160 ft | 430 kts | 32° |
| 2026-04-24 13:34 | 40.65486 | 9.82724 | 18162 ft | 430 kts | 33° |
| 2026-04-24 13:34 | 40.67981 | 9.84903 | 18168 ft | 431 kts | 33° |
| 2026-04-24 13:34 | 40.70476 | 9.87089 | 18164 ft | 431 kts | 33° |
| 2026-04-24 13:34 | 40.72974 | 9.89279 | 18160 ft | 431 kts | 33° |
| 2026-04-24 13:35 | 40.75436 | 9.91525 | 18157 ft | 431 kts | 37° |
| 2026-04-24 13:35 | 40.77743 | 9.94049 | 18160 ft | 431 kts | 39° |
| 2026-04-24 13:35 | 40.80047 | 9.96594 | 18161 ft | 431 kts | 39° |
| 2026-04-24 13:35 | 40.82345 | 9.99138 | 18166 ft | 431 kts | 39° |
| 2026-04-24 13:36 | 40.84646 | 10.01685 | 18166 ft | 431 kts | 39° |
| 2026-04-24 13:36 | 40.86947 | 10.04229 | 18164 ft | 431 kts | 39° |
| 2026-04-24 13:36 | 40.89245 | 10.06771 | 18162 ft | 431 kts | 39° |
| 2026-04-24 13:36 | 40.91544 | 10.09320 | 18159 ft | 431 kts | 39° |
| 2026-04-24 13:37 | 40.93839 | 10.11870 | 18155 ft | 431 kts | 39° |
| 2026-04-24 13:37 | 40.96134 | 10.14423 | 18154 ft | 431 kts | 39° |
| 2026-04-24 13:37 | 40.98428 | 10.16976 | 18153 ft | 431 kts | 39° |
| 2026-04-24 13:37 | 41.00719 | 10.19525 | 18152 ft | 431 kts | 39° |
| 2026-04-24 13:38 | 41.03015 | 10.22081 | 18157 ft | 431 kts | 39° |
| 2026-04-24 13:38 | 41.05322 | 10.24653 | 18265 ft | 438 kts | 39° |
| 2026-04-24 13:38 | 41.07672 | 10.27276 | 18509 ft | 444 kts | 39° |
| 2026-04-24 13:38 | 41.10040 | 10.29923 | 18845 ft | 446 kts | 39° |
| 2026-04-24 13:39 | 41.12417 | 10.32582 | 19178 ft | 448 kts | 39° |
| 2026-04-24 13:39 | 41.14804 | 10.35255 | 19490 ft | 450 kts | 40° |
| 2026-04-24 13:39 | 41.17196 | 10.37939 | 19788 ft | 451 kts | 40° |
| 2026-04-24 13:39 | 41.19591 | 10.40630 | 20093 ft | 453 kts | 40° |
| 2026-04-24 13:40 | 41.21969 | 10.43304 | 20380 ft | 454 kts | 40° |
| 2026-04-24 13:40 | 41.24385 | 10.46020 | 20660 ft | 455 kts | 40° |
| 2026-04-24 13:40 | 41.26797 | 10.48733 | 21091 ft | 453 kts | 40° |
| 2026-04-24 13:40 | 41.29195 | 10.51429 | 21575 ft | 450 kts | 40° |
| 2026-04-24 13:41 | 41.31582 | 10.54116 | 22073 ft | 448 kts | 41° |
| 2026-04-24 13:41 | 41.33949 | 10.56788 | 22567 ft | 445 kts | 41° |
| 2026-04-24 13:41 | 41.36303 | 10.59451 | 23081 ft | 443 kts | 42° |
| 2026-04-24 13:41 | 41.38657 | 10.62114 | 23576 ft | 442 kts | 42° |
| 2026-04-24 13:42 | 41.40991 | 10.64756 | 24013 ft | 441 kts | 42° |
| 2026-04-24 13:42 | 41.43328 | 10.67403 | 24420 ft | 439 kts | 42° |
| 2026-04-24 13:42 | 41.45648 | 10.70037 | 24852 ft | 438 kts | 42° |
| 2026-04-24 13:42 | 41.47963 | 10.72664 | 25278 ft | 437 kts | 42° |
| 2026-04-24 13:43 | 41.50273 | 10.75288 | 25707 ft | 435 kts | 41° |
| 2026-04-24 13:43 | 41.52573 | 10.77906 | 26148 ft | 434 kts | 41° |
| 2026-04-24 13:43 | 41.54867 | 10.80520 | 26602 ft | 433 kts | 41° |
| 2026-04-24 13:43 | 41.57156 | 10.83128 | 27055 ft | 431 kts | 41° |
| 2026-04-24 13:44 | 41.59434 | 10.85723 | 27517 ft | 430 kts | 41° |
| 2026-04-24 13:44 | 41.61705 | 10.88311 | 27990 ft | 428 kts | 41° |
| 2026-04-24 13:44 | 41.63964 | 10.90891 | 28469 ft | 427 kts | 41° |
| 2026-04-24 13:44 | 41.66218 | 10.93470 | 28959 ft | 425 kts | 41° |
| 2026-04-24 13:45 | 41.68456 | 10.96037 | 29447 ft | 423 kts | 41° |
| 2026-04-24 13:45 | 41.70690 | 10.98600 | 29957 ft | 422 kts | 41° |
| 2026-04-24 13:45 | 41.72914 | 11.01134 | 30427 ft | 420 kts | 39° |
| 2026-04-24 13:45 | 41.75346 | 11.03278 | 30860 ft | 418 kts | 28° |
| 2026-04-24 13:46 | 41.78036 | 11.04735 | 31304 ft | 418 kts | 17° |
| 2026-04-24 13:46 | 41.80883 | 11.05462 | 31754 ft | 418 kts | 6° |
| 2026-04-24 13:46 | 41.83790 | 11.05437 | 32212 ft | 418 kts | 355° |
| 2026-04-24 13:46 | 41.86656 | 11.04657 | 32464 ft | 425 kts | 345° |
| 2026-04-24 13:47 | 41.89403 | 11.03078 | 32596 ft | 435 kts | 334° |
| 2026-04-24 13:47 | 41.92062 | 11.01077 | 32733 ft | 440 kts | 334° |
| 2026-04-24 13:47 | 41.94740 | 10.99054 | 32889 ft | 444 kts | 334° |
| 2026-04-24 13:47 | 41.97437 | 10.97019 | 33148 ft | 444 kts | 334° |
| 2026-04-24 13:48 | 42.00107 | 10.95014 | 33442 ft | 444 kts | 334° |
| 2026-04-24 13:48 | 42.02806 | 10.92991 | 33762 ft | 443 kts | 334° |
| 2026-04-24 13:48 | 42.05496 | 10.90973 | 34070 ft | 443 kts | 334° |
| 2026-04-24 13:48 | 42.08189 | 10.88953 | 34155 ft | 443 kts | 334° |
| 2026-04-24 13:49 | 42.13560 | 10.84911 | 34164 ft | 442 kts | 334° |
| 2026-04-24 13:49 | 42.18928 | 10.80872 | 34163 ft | 441 kts | 334° |
| 2026-04-24 13:50 | 42.24279 | 10.76819 | 34160 ft | 441 kts | 334° |
| 2026-04-24 13:50 | 42.29603 | 10.72787 | 34160 ft | 441 kts | 334° |
| 2026-04-24 13:51 | 42.34992 | 10.68706 | 34158 ft | 441 kts | 334° |
| 2026-04-24 13:51 | 42.40308 | 10.64661 | 34158 ft | 441 kts | 334° |
| 2026-04-24 13:52 | 42.44792 | 10.61251 | 34162 ft | 441 kts | 334° |
| 2026-04-24 13:52 | 42.51012 | 10.56510 | 34144 ft | 441 kts | 334° |
| 2026-04-24 13:53 | 42.56367 | 10.52410 | 34137 ft | 442 kts | 334° |
| 2026-04-24 13:53 | 42.60857 | 10.48972 | 34141 ft | 443 kts | 334° |
| 2026-04-24 13:54 | 42.66186 | 10.44876 | 34145 ft | 443 kts | 334° |
| 2026-04-24 13:54 | 42.71560 | 10.40742 | 34150 ft | 444 kts | 334° |
| 2026-04-24 13:55 | 42.76936 | 10.36631 | 34142 ft | 443 kts | 334° |
| 2026-04-24 13:55 | 42.82343 | 10.32572 | 34146 ft | 443 kts | 335° |
| 2026-04-24 13:56 | 42.87752 | 10.28525 | 34144 ft | 444 kts | 335° |
| 2026-04-24 13:56 | 42.93154 | 10.24446 | 34149 ft | 444 kts | 334° |
| 2026-04-24 13:57 | 42.98556 | 10.20345 | 34132 ft | 444 kts | 334° |
| 2026-04-24 13:57 | 43.03965 | 10.16241 | 34134 ft | 445 kts | 334° |
| 2026-04-24 13:58 | 43.09384 | 10.12120 | 34052 ft | 445 kts | 334° |
| 2026-04-24 13:58 | 43.12083 | 10.10062 | 33253 ft | 445 kts | 334° |
| 2026-04-24 13:58 | 43.14793 | 10.07996 | 32442 ft | 446 kts | 334° |
| 2026-04-24 13:59 | 43.17515 | 10.05918 | 31911 ft | 449 kts | 334° |
| 2026-04-24 13:59 | 43.20249 | 10.03828 | 31372 ft | 451 kts | 334° |
| 2026-04-24 13:59 | 43.22993 | 10.01731 | 30858 ft | 453 kts | 334° |
| 2026-04-24 13:59 | 43.25751 | 9.99627 | 30349 ft | 454 kts | 334° |
| 2026-04-24 14:00 | 43.28473 | 9.97545 | 29722 ft | 454 kts | 334° |
| 2026-04-24 14:00 | 43.31219 | 9.95433 | 29097 ft | 451 kts | 334° |
| 2026-04-24 14:00 | 43.33942 | 9.93331 | 28475 ft | 447 kts | 334° |
| 2026-04-24 14:00 | 43.36638 | 9.91248 | 27858 ft | 443 kts | 334° |
| 2026-04-24 14:01 | 43.39314 | 9.89180 | 27260 ft | 439 kts | 333° |
| 2026-04-24 14:01 | 43.41970 | 9.87131 | 26667 ft | 435 kts | 333° |
| 2026-04-24 14:01 | 43.44602 | 9.85101 | 26092 ft | 431 kts | 333° |
| 2026-04-24 14:01 | 43.47214 | 9.83093 | 25534 ft | 428 kts | 333° |
| 2026-04-24 14:02 | 43.49807 | 9.81098 | 24972 ft | 425 kts | 333° |
| 2026-04-24 14:02 | 43.52378 | 9.79112 | 24431 ft | 422 kts | 333° |
| 2026-04-24 14:02 | 43.54930 | 9.77137 | 23901 ft | 419 kts | 333° |
| 2026-04-24 14:02 | 43.57463 | 9.75170 | 23298 ft | 416 kts | 333° |
| 2026-04-24 14:03 | 43.59976 | 9.73219 | 22690 ft | 413 kts | 333° |
| 2026-04-24 14:03 | 43.62469 | 9.71284 | 22071 ft | 410 kts | 333° |
| 2026-04-24 14:03 | 43.64939 | 9.69363 | 21478 ft | 406 kts | 333° |
| 2026-04-24 14:03 | 43.67395 | 9.67448 | 20899 ft | 403 kts | 333° |
| 2026-04-24 14:04 | 43.69831 | 9.65547 | 20321 ft | 401 kts | 332° |
| 2026-04-24 14:04 | 43.72252 | 9.63659 | 19763 ft | 399 kts | 332° |
| 2026-04-24 14:04 | 43.74663 | 9.61779 | 19214 ft | 397 kts | 332° |
| 2026-04-24 14:04 | 43.77062 | 9.59910 | 18675 ft | 394 kts | 332° |
| 2026-04-24 14:05 | 43.79445 | 9.58050 | 18098 ft | 392 kts | 332° |
| 2026-04-24 14:05 | 43.81817 | 9.56194 | 17486 ft | 390 kts | 332° |
| 2026-04-24 14:05 | 43.84175 | 9.54347 | 16887 ft | 388 kts | 332° |
| 2026-04-24 14:05 | 43.86490 | 9.52530 | 16306 ft | 386 kts | 332° |
| 2026-04-24 14:06 | 43.88811 | 9.50707 | 15716 ft | 371 kts | 332° |
| 2026-04-24 14:06 | 43.91009 | 9.48979 | 15158 ft | 356 kts | 332° |
| 2026-04-24 14:06 | 43.93111 | 9.47325 | 14613 ft | 349 kts | 332° |
| 2026-04-24 14:06 | 43.95201 | 9.45680 | 14061 ft | 340 kts | 332° |
| 2026-04-24 14:07 | 43.97221 | 9.44084 | 13463 ft | 328 kts | 330° |
| 2026-04-24 14:07 | 43.99047 | 9.42264 | 12874 ft | 319 kts | 320° |
| 2026-04-24 14:07 | 44.00625 | 9.40143 | 12279 ft | 311 kts | 316° |
| 2026-04-24 14:07 | 44.02133 | 9.38046 | 11698 ft | 303 kts | 316° |
| 2026-04-24 14:08 | 44.03606 | 9.36005 | 11140 ft | 296 kts | 316° |
| 2026-04-24 14:08 | 44.05048 | 9.34009 | 10576 ft | 289 kts | 316° |
| 2026-04-24 14:08 | 44.06460 | 9.32050 | 10032 ft | 285 kts | 316° |
| 2026-04-24 14:08 | 44.07861 | 9.30100 | 9435 ft | 286 kts | 316° |
| 2026-04-24 14:09 | 44.09280 | 9.28126 | 8861 ft | 290 kts | 315° |
| 2026-04-24 14:09 | 44.10708 | 9.26141 | 8374 ft | 290 kts | 315° |
| 2026-04-24 14:09 | 44.12137 | 9.24155 | 7906 ft | 290 kts | 314° |
| 2026-04-24 14:09 | 44.13566 | 9.22172 | 7424 ft | 289 kts | 314° |
| 2026-04-24 14:10 | 44.14980 | 9.20251 | 6960 ft | 278 kts | 319° |
| 2026-04-24 14:10 | 44.16609 | 9.18902 | 6580 ft | 272 kts | 338° |
| 2026-04-24 14:10 | 44.18468 | 9.18406 | 6223 ft | 275 kts | 358° |
| 2026-04-24 14:10 | 44.20356 | 9.18842 | 5867 ft | 278 kts | 18° |
| 2026-04-24 14:11 | 44.22135 | 9.19811 | 5519 ft | 267 kts | 19° |
| 2026-04-24 14:11 | 44.23818 | 9.20742 | 5167 ft | 254 kts | 19° |
| 2026-04-24 14:11 | 44.26973 | 9.22475 | 4512 ft | 232 kts | 19° |
| 2026-04-24 14:12 | 44.28456 | 9.22957 | 4510 ft | 204 kts | 0° |
| 2026-04-24 14:12 | 44.29781 | 9.22833 | 4513 ft | 178 kts | 344° |
| 2026-04-24 14:12 | 44.30863 | 9.22325 | 4491 ft | 153 kts | 330° |
| 2026-04-24 14:12 | 44.31736 | 9.21572 | 4493 ft | 144 kts | 316° |
| 2026-04-24 14:13 | 44.32448 | 9.20614 | 4494 ft | 141 kts | 304° |
| 2026-04-24 14:13 | 44.32984 | 9.19512 | 4489 ft | 138 kts | 294° |
| 2026-04-24 14:13 | 44.33347 | 9.18279 | 4490 ft | 137 kts | 283° |
| 2026-04-24 14:13 | 44.33653 | 9.17015 | 4495 ft | 137 kts | 284° |
| 2026-04-24 14:14 | 44.33959 | 9.15746 | 4483 ft | 138 kts | 284° |
| 2026-04-24 14:14 | 44.34260 | 9.14468 | 4371 ft | 138 kts | 284° |
| 2026-04-24 14:14 | 44.34853 | 9.11925 | 4048 ft | 138 kts | 284° |
| 2026-04-24 14:15 | 44.35147 | 9.10655 | 3861 ft | 137 kts | 284° |
| 2026-04-24 14:15 | 44.35439 | 9.09392 | 3677 ft | 136 kts | 284° |
| 2026-04-24 14:15 | 44.35730 | 9.08128 | 3498 ft | 140 kts | 281° |
| 2026-04-24 14:15 | 44.36034 | 9.06810 | 3306 ft | 143 kts | 281° |
| 2026-04-24 14:16 | 44.36339 | 9.05488 | 3102 ft | 144 kts | 280° |
| 2026-04-24 14:16 | 44.36648 | 9.04151 | 2899 ft | 145 kts | 281° |
| 2026-04-24 14:16 | 44.36958 | 9.02805 | 2705 ft | 145 kts | 282° |
| 2026-04-24 14:17 | 44.37620 | 9.00151 | 2287 ft | 146 kts | 288° |
| 2026-04-24 14:17 | 44.38017 | 8.98841 | 2067 ft | 147 kts | 287° |
| 2026-04-24 14:17 | 44.38811 | 8.96221 | 1697 ft | 146 kts | 285° |
| 2026-04-24 14:18 | 44.39125 | 8.94879 | 1454 ft | 146 kts | 283° |
| 2026-04-24 14:18 | 44.39408 | 8.93521 | 1251 ft | 146 kts | 282° |
| 2026-04-24 14:18 | 44.39673 | 8.92161 | 1047 ft | 146 kts | 280° |
| 2026-04-24 14:18 | 44.39944 | 8.90814 | 852 ft | 144 kts | 280° |
| 2026-04-24 14:19 | 44.40115 | 8.89903 | 713 ft | 143 kts | 279° |
| 2026-04-24 14:19 | 44.40438 | 8.88129 | 413 ft | 140 kts | 280° |
| 2026-04-24 14:19 | 44.40690 | 8.86805 | 232 ft | 141 kts | 283° |
| 2026-04-24 14:19 | 44.40943 | 8.85493 | 29 ft | 134 kts | 282° |
| 2026-04-24 14:20 | 44.41157 | 8.84378 | 21 ft | 98 kts | 286° |
| 2026-04-24 14:20 | 44.41292 | 8.83692 | 20 ft | 48 kts | 287° |
| 2026-04-24 14:20 | 44.41362 | 8.83334 | 24 ft | 35 kts | 286° |
| 2026-04-24 14:20 | 44.41464 | 8.83102 | 24 ft | 20 kts | 327° |
| 2026-04-24 14:21 | 44.41547 | 8.83176 | 26 ft | 17 kts | 92° |
| 2026-04-24 14:21 | 44.41513 | 8.83347 | 25 ft | 20 kts | 105° |
| 2026-04-24 14:21 | 44.41472 | 8.83552 | 22 ft | 23 kts | 105° |
| 2026-04-24 14:21 | 44.41428 | 8.83786 | 18 ft | 27 kts | 105° |
| 2026-04-24 14:22 | 44.41377 | 8.84041 | 18 ft | 28 kts | 105° |
| 2026-04-24 14:22 | 44.41327 | 8.84303 | 19 ft | 21 kts | 105° |
| 2026-04-24 14:22 | 44.41435 | 8.84629 | 18 ft | 21 kts | 52° |
| 2026-04-24 14:23 | 44.41457 | 8.84767 | 20 ft | 10 kts | 106° |
| 2026-04-24 14:23 | 44.41449 | 8.84808 | 18 ft | 0 kts | 104° |
| 2026-04-24 14:23 | 44.41447 | 8.84819 | 18 ft | 0 kts | 104° |